createdAt,value
2022-08-16T00:01:28.868Z,20.14
2022-08-16T00:04:02.158Z,20.08
2022-08-16T00:06:33.549Z,20.01
2022-08-16T00:09:02.872Z,19.70
2022-08-16T00:11:30.880Z,19.64
2022-08-16T00:13:59.593Z,19.66
2022-08-16T00:17:05.736Z,19.52
2022-08-16T00:19:24.605Z,19.35
2022-08-16T00:22:01.617Z,19.33
2022-08-16T00:24:36.295Z,19.20
2022-08-16T00:27:06.697Z,19.01
2022-08-16T00:29:36.579Z,19.02
2022-08-16T00:32:07.975Z,19.11
2022-08-16T00:34:43.392Z,19.18
2022-08-16T00:37:16.877Z,19.21
2022-08-16T00:39:57.720Z,19.20
2022-08-16T00:42:31.844Z,19.10
2022-08-16T00:45:06.276Z,19.15
2022-08-16T00:47:37.993Z,19.09
2022-08-16T00:50:11.403Z,19.17
2022-08-16T00:52:50.863Z,18.92
2022-08-16T00:55:23.350Z,18.94
2022-08-16T00:57:58.490Z,18.91
2022-08-16T01:00:31.055Z,18.93
2022-08-16T01:03:03.563Z,18.92
2022-08-16T01:05:32.972Z,19.01
2022-08-16T01:08:02.702Z,18.97
2022-08-16T01:10:53.169Z,18.83
2022-08-16T01:13:23.952Z,18.76
2022-08-16T01:15:58.335Z,18.55
2022-08-16T01:18:40.061Z,18.61
2022-08-16T01:21:33.931Z,18.65
2022-08-16T01:24:53.456Z,18.57
2022-08-16T01:27:09.081Z,18.54
2022-08-16T01:29:58.691Z,18.46
2022-08-16T01:32:31.872Z,18.44
2022-08-16T01:35:09.372Z,18.32
2022-08-16T01:37:54.141Z,18.31
2022-08-16T01:40:31.448Z,18.27
2022-08-16T01:43:00.116Z,18.04
2022-08-16T01:45:40.852Z,18.15
2022-08-16T01:48:19.906Z,18.11
2022-08-16T01:51:09.217Z,18.03
2022-08-16T01:53:42.055Z,18.05
2022-08-16T01:56:29.014Z,18.18
2022-08-16T01:59:00.390Z,18.30
2022-08-16T02:01:31.859Z,18.25
2022-08-16T02:04:10.987Z,18.20
2022-08-16T02:06:45.900Z,18.29
2022-08-16T02:09:17.883Z,18.17
2022-08-16T02:11:53.210Z,18.13
2022-08-16T02:14:26.575Z,18.05
2022-08-16T02:16:57.427Z,18.03
2022-08-16T02:20:00.159Z,17.99
2022-08-16T02:22:36.018Z,18.02
2022-08-16T02:25:14.770Z,18.17
2022-08-16T02:27:47.947Z,18.03
2022-08-16T02:30:35.914Z,17.98
2022-08-16T02:33:08.261Z,18.10
2022-08-16T02:35:49.701Z,18.07
2022-08-16T02:38:24.278Z,18.15
2022-08-16T02:40:54.636Z,18.29
2022-08-16T02:43:26.610Z,18.24
2022-08-16T02:45:58.659Z,18.05
2022-08-16T02:48:30.093Z,18.25
2022-08-16T02:51:06.520Z,18.30
2022-08-16T02:53:45.136Z,18.27
2022-08-16T02:56:16.120Z,18.10
2022-08-16T02:58:48.090Z,18.27
2022-08-16T03:01:24.683Z,18.33
2022-08-16T03:04:39.998Z,18.34
2022-08-16T03:06:56.854Z,18.17
2022-08-16T03:09:48.212Z,18.26
2022-08-16T03:12:30.466Z,18.23
2022-08-16T03:15:08.020Z,18.11
2022-08-16T03:17:37.596Z,18.03
2022-08-16T03:20:32.139Z,17.92
2022-08-16T03:23:03.194Z,17.91
2022-08-16T03:25:41.030Z,17.91
2022-08-16T03:28:12.408Z,17.87
2022-08-16T03:30:42.975Z,17.88
2022-08-16T03:33:14.212Z,17.92
2022-08-16T03:35:49.858Z,17.95
2022-08-16T03:38:35.019Z,17.90
2022-08-16T03:41:24.299Z,17.83
2022-08-16T03:43:56.914Z,17.81
2022-08-16T03:46:47.195Z,17.78
2022-08-16T03:49:23.916Z,17.78
2022-08-16T03:52:07.426Z,17.73
2022-08-16T03:54:38.164Z,17.75
2022-08-16T03:57:16.442Z,17.79
2022-08-16T03:59:45.891Z,17.84
2022-08-16T04:02:22.182Z,17.72
2022-08-16T04:04:54.086Z,17.64
2022-08-16T04:07:24.814Z,17.70
2022-08-16T04:09:53.736Z,17.81
2022-08-16T04:12:53.397Z,17.97
2022-08-16T04:15:16.812Z,18.10
2022-08-16T04:17:57.923Z,18.31
2022-08-16T04:20:33.977Z,18.31
2022-08-16T04:23:08.228Z,18.40
2022-08-16T04:25:38.831Z,18.43
2022-08-16T04:28:29.330Z,18.49
2022-08-16T04:30:59.197Z,18.43
2022-08-16T04:33:34.786Z,18.51
2022-08-16T04:36:04.967Z,18.54
2022-08-16T04:38:34.683Z,18.57
2022-08-16T04:41:03.697Z,18.36
2022-08-16T04:43:38.594Z,18.04
2022-08-16T04:47:00.231Z,18.48
2022-08-16T04:49:05.338Z,18.61
2022-08-16T04:51:35.757Z,18.68
2022-08-16T04:54:05.606Z,18.81
2022-08-16T04:56:34.853Z,19.03
2022-08-16T04:59:11.934Z,19.21
2022-08-16T05:01:58.039Z,19.34
2022-08-16T05:04:30.210Z,19.42
2022-08-16T05:06:59.973Z,19.47
2022-08-16T05:09:45.208Z,19.59
2022-08-16T05:12:18.252Z,19.72
2022-08-16T05:15:02.057Z,19.72
2022-08-16T05:17:32.653Z,19.81
2022-08-16T05:20:35.182Z,19.89
2022-08-16T05:22:56.426Z,20.12
2022-08-16T05:25:24.728Z,20.26
2022-08-16T05:28:11.862Z,20.41
2022-08-16T05:30:44.769Z,20.54
2022-08-16T05:33:21.521Z,20.84
2022-08-16T05:35:55.229Z,20.83
2022-08-16T05:38:47.079Z,20.91
2022-08-16T05:41:17.320Z,20.90
2022-08-16T05:43:48.113Z,21.08
2022-08-16T05:46:34.449Z,21.18
2022-08-16T05:49:10.702Z,21.64
2022-08-16T05:51:45.735Z,21.85
2022-08-16T05:54:25.635Z,21.80
2022-08-16T05:56:57.940Z,21.87
2022-08-16T05:59:29.136Z,21.98
2022-08-16T06:01:59.326Z,22.04
2022-08-16T06:04:35.899Z,22.18
2022-08-16T06:07:24.781Z,22.06
2022-08-16T06:10:05.750Z,21.85
2022-08-16T06:12:36.630Z,21.89
2022-08-16T06:15:11.747Z,21.99
2022-08-16T06:17:44.569Z,22.23
2022-08-16T06:20:24.080Z,22.26
2022-08-16T06:23:03.896Z,22.39
2022-08-16T06:25:52.956Z,22.62
2022-08-16T06:28:36.414Z,22.65
2022-08-16T06:31:12.237Z,22.76
2022-08-16T06:34:53.241Z,22.87
2022-08-16T06:36:59.454Z,22.91
2022-08-16T06:39:30.917Z,23.01
2022-08-16T06:42:07.810Z,23.24
2022-08-16T06:44:51.279Z,23.09
2022-08-16T06:47:56.414Z,22.78
2022-08-16T06:50:28.646Z,23.11
2022-08-16T06:53:06.845Z,22.72
2022-08-16T06:55:43.382Z,23.33
2022-08-16T06:58:22.735Z,23.53
2022-08-16T07:01:10.043Z,23.54
2022-08-16T07:03:55.472Z,28.08
2022-08-16T07:06:31.617Z,32.22
2022-08-16T07:09:09.395Z,35.87
2022-08-16T07:11:48.131Z,37.41
2022-08-16T07:14:28.573Z,37.86
2022-08-16T07:17:01.017Z,37.64
2022-08-16T07:20:03.053Z,38.29
2022-08-16T07:22:39.253Z,40.12
2022-08-16T07:25:24.637Z,41.34
2022-08-16T07:27:54.833Z,40.83
2022-08-16T07:30:26.637Z,39.41
2022-08-16T07:33:52.005Z,39.59
2022-08-16T07:36:14.935Z,39.93
2022-08-16T07:38:51.807Z,39.29
2022-08-16T07:41:20.832Z,40.29
2022-08-16T07:43:56.846Z,39.24
2022-08-16T07:46:37.676Z,41.44
2022-08-16T07:49:20.065Z,43.62
2022-08-16T07:51:48.927Z,43.38
2022-08-16T07:54:32.370Z,43.52
2022-08-16T07:57:12.081Z,42.14
2022-08-16T07:59:46.022Z,43.14
2022-08-16T08:02:20.547Z,42.38
2022-08-16T08:04:54.517Z,40.97
2022-08-16T08:07:23.001Z,39.89
2022-08-16T08:09:57.050Z,42.14
2022-08-16T08:12:32.475Z,43.72
2022-08-16T08:15:10.584Z,45.61
2022-08-16T08:17:42.884Z,43.84
2022-08-16T08:20:26.698Z,43.05
2022-08-16T08:23:01.266Z,42.53
2022-08-16T08:25:55.074Z,43.98
2022-08-16T08:28:31.912Z,44.91
2022-08-16T08:31:05.699Z,44.31
2022-08-16T08:33:38.347Z,42.96
2022-08-16T08:36:21.959Z,40.33
2022-08-16T08:38:53.460Z,43.32
2022-08-16T08:41:28.414Z,40.49
2022-08-16T08:43:58.966Z,39.86
2022-08-16T08:46:35.658Z,42.23
2022-08-16T08:49:08.836Z,42.69
2022-08-16T08:51:42.910Z,41.63
2022-08-16T08:54:18.826Z,43.01
2022-08-16T08:56:53.472Z,41.09
2022-08-16T08:59:40.856Z,39.58
2022-08-16T09:02:15.001Z,41.25
2022-08-16T09:04:52.638Z,39.90
2022-08-16T09:07:23.607Z,41.38
2022-08-16T09:10:06.099Z,41.19
2022-08-16T09:12:37.536Z,41.56
2022-08-16T09:15:21.730Z,41.78
2022-08-16T09:17:57.019Z,43.40
2022-08-16T09:20:30.356Z,43.41
2022-08-16T09:22:59.436Z,43.50
2022-08-16T09:25:33.606Z,41.96
2022-08-16T09:28:09.001Z,40.75
2022-08-16T09:30:43.146Z,40.68
2022-08-16T09:33:20.018Z,40.06
2022-08-16T09:35:53.566Z,39.39
2022-08-16T09:38:31.953Z,40.81
2022-08-16T09:41:01.171Z,41.54
2022-08-16T09:46:48.992Z,42.35
2022-08-16T09:49:08.434Z,40.86
2022-08-16T09:51:37.313Z,41.66
2022-08-16T09:54:09.721Z,41.06
2022-08-16T09:56:52.900Z,41.23
2022-08-16T09:59:23.311Z,39.77
2022-08-16T10:01:53.224Z,40.30
2022-08-16T10:04:30.497Z,39.05
2022-08-16T10:07:12.020Z,37.99
2022-08-16T10:09:54.588Z,37.38
2022-08-16T10:12:43.440Z,35.62
2022-08-16T10:15:16.913Z,34.47
2022-08-16T10:18:01.316Z,34.35
2022-08-16T10:20:35.135Z,37.70
2022-08-16T10:23:07.378Z,39.21
2022-08-16T10:27:20.518Z,38.08
2022-08-16T10:28:31.915Z,39.94
2022-08-16T10:31:03.520Z,39.89
2022-08-16T10:33:35.398Z,38.26
2022-08-16T10:36:39.317Z,39.69
2022-08-16T10:39:02.139Z,39.51
2022-08-16T10:41:32.942Z,38.14
2022-08-16T10:44:01.533Z,38.60
2022-08-16T10:46:39.098Z,39.37
2022-08-16T10:49:09.274Z,39.14
2022-08-16T10:52:02.695Z,37.04
2022-08-16T10:54:30.181Z,36.48
2022-08-16T10:57:04.009Z,37.57
2022-08-16T10:59:45.911Z,36.40
2022-08-16T11:02:58.871Z,35.54
2022-08-16T11:05:14.170Z,36.02
2022-08-16T11:07:52.394Z,34.83
2022-08-16T11:19:05.836Z,37.85
2022-08-16T11:22:38.597Z,37.09
2022-08-16T11:24:42.843Z,33.98
2022-08-16T11:27:23.566Z,32.67
2022-08-16T11:29:54.996Z,32.43
2022-08-16T11:32:31.833Z,32.18
2022-08-16T11:35:10.509Z,31.66
2022-08-16T11:40:33.380Z,31.71
2022-08-16T11:43:05.582Z,32.51
2022-08-16T11:45:35.234Z,33.02
2022-08-16T11:48:07.020Z,33.83
2022-08-16T11:50:35.722Z,34.78
2022-08-16T11:53:06.094Z,34.06
2022-08-16T11:55:39.277Z,33.46
2022-08-16T11:58:14.350Z,32.68
2022-08-16T12:00:51.829Z,32.61
2022-08-16T12:03:34.335Z,32.87
2022-08-16T12:06:30.265Z,33.68
2022-08-16T12:09:02.096Z,33.79
2022-08-16T12:11:33.393Z,34.81
2022-08-16T12:14:04.614Z,35.43
2022-08-16T12:16:34.870Z,34.61
2022-08-16T12:19:04.391Z,33.06
2022-08-16T12:21:35.967Z,34.05
2022-08-16T12:24:22.129Z,35.15
2022-08-16T12:26:54.355Z,35.65
2022-08-16T12:29:23.098Z,35.87
2022-08-16T12:32:01.336Z,34.34
2022-08-16T12:34:50.823Z,33.17
2022-08-16T12:37:23.019Z,32.37
2022-08-16T12:39:52.931Z,32.72
2022-08-16T12:42:24.440Z,33.02
2022-08-16T12:45:04.265Z,33.43
2022-08-16T12:47:50.008Z,34.25
2022-08-16T12:50:20.137Z,34.81
2022-08-16T12:52:53.063Z,33.98
2022-08-16T12:55:23.844Z,33.50
2022-08-16T12:58:03.229Z,33.54
2022-08-16T13:00:43.796Z,33.83
2022-08-16T13:03:12.800Z,34.02
2022-08-16T13:05:47.706Z,34.19
2022-08-16T13:08:27.598Z,34.69
2022-08-16T13:10:59.445Z,34.85
2022-08-16T13:13:29.603Z,33.53
2022-08-16T13:16:03.731Z,31.77
2022-08-16T13:18:36.184Z,31.70
2022-08-16T13:21:05.909Z,31.91
2022-08-16T13:23:35.848Z,33.04
2022-08-16T13:26:04.873Z,33.10
2022-08-16T13:28:34.607Z,33.83
2022-08-16T13:31:29.684Z,34.01
2022-08-16T13:33:58.658Z,34.49
2022-08-16T13:36:47.922Z,34.17
2022-08-16T13:39:15.214Z,35.05
2022-08-16T13:41:43.180Z,35.08
2022-08-16T13:44:12.549Z,35.77
2022-08-16T13:46:44.750Z,35.49
2022-08-16T13:53:24.413Z,34.65
2022-08-16T13:55:57.945Z,34.75
2022-08-16T13:58:37.143Z,34.74
2022-08-16T14:01:17.044Z,35.17
2022-08-16T14:03:45.972Z,35.16
2022-08-16T14:06:15.882Z,34.19
2022-08-16T14:08:58.809Z,33.20
2022-08-16T14:11:34.907Z,33.20
2022-08-16T14:14:05.471Z,33.15
2022-08-16T14:16:34.951Z,33.65
2022-08-16T14:19:03.722Z,32.88
2022-08-16T14:21:34.808Z,34.31
2022-08-16T14:24:08.149Z,35.36
2022-08-16T14:26:52.669Z,34.43
2022-08-16T14:29:21.299Z,34.00
2022-08-16T14:31:54.206Z,33.38
2022-08-16T14:34:25.746Z,33.46
2022-08-16T14:36:58.213Z,33.55
2022-08-16T14:39:29.611Z,33.10
2022-08-16T14:42:04.803Z,32.91
2022-08-16T14:44:33.944Z,33.42
2022-08-16T14:47:04.227Z,34.37
2022-08-16T14:49:34.627Z,34.27
2022-08-16T14:52:08.716Z,34.41
2022-08-16T14:54:39.133Z,34.89
2022-08-16T14:57:08.161Z,34.96
2022-08-16T14:59:41.160Z,34.71
2022-08-16T15:02:27.679Z,35.05
2022-08-16T15:05:04.463Z,34.69
2022-08-16T15:07:35.254Z,34.88
2022-08-16T15:10:06.765Z,34.80
2022-08-16T15:12:36.482Z,34.87
2022-08-16T15:15:13.056Z,33.51
2022-08-16T15:17:56.705Z,33.98
2022-08-16T15:20:29.578Z,34.27
2022-08-16T15:22:59.577Z,33.92
2022-08-16T15:25:31.905Z,33.88
2022-08-16T15:28:04.719Z,34.28
2022-08-16T15:30:58.279Z,34.16
2022-08-16T15:33:25.853Z,33.85
2022-08-16T15:35:58.383Z,34.69
2022-08-16T15:38:43.525Z,33.67
2022-08-16T15:41:47.954Z,33.54
2022-08-16T15:44:22.445Z,33.70
2022-08-16T15:46:55.600Z,34.55
2022-08-16T15:49:34.545Z,35.66
2022-08-16T15:52:11.118Z,36.16
2022-08-16T15:54:51.404Z,35.79
2022-08-16T15:57:21.137Z,35.26
2022-08-16T15:59:56.118Z,35.13
2022-08-16T16:02:29.324Z,34.25
2022-08-16T16:05:01.029Z,33.96
2022-08-16T16:07:31.046Z,34.13
2022-08-16T16:10:00.128Z,34.86
2022-08-16T16:15:22.683Z,34.45
2022-08-16T16:17:52.441Z,34.62
2022-08-16T16:20:21.987Z,34.86
2022-08-16T16:22:53.707Z,34.25
2022-08-16T16:25:21.737Z,34.49
2022-08-16T16:27:55.369Z,33.46
2022-08-16T16:30:32.994Z,33.43
2022-08-16T16:33:21.222Z,33.12
2022-08-16T16:35:54.920Z,32.29
2022-08-16T16:38:28.663Z,33.07
2022-08-16T16:40:57.840Z,32.93
2022-08-16T16:43:31.593Z,32.88
2022-08-16T16:46:03.064Z,31.67
2022-08-16T16:48:51.999Z,31.67
2022-08-16T16:51:23.790Z,31.24
2022-08-16T16:53:57.468Z,30.83
2022-08-16T16:56:31.062Z,30.52
2022-08-16T16:59:04.601Z,30.90
2022-08-16T17:01:59.958Z,31.66
2022-08-16T17:04:31.650Z,31.74
2022-08-16T17:07:01.423Z,32.08
2022-08-16T17:09:30.093Z,32.37
2022-08-16T17:11:58.493Z,32.51
2022-08-16T17:27:59.350Z,32.46
2022-08-16T17:30:45.258Z,32.52
2022-08-16T17:33:15.141Z,32.39
2022-08-16T17:35:55.403Z,31.94
2022-08-16T17:38:38.666Z,31.18
2022-08-16T17:41:12.718Z,30.58
2022-08-16T17:43:44.528Z,30.31
2022-08-16T17:46:51.948Z,30.02
2022-08-16T17:49:02.756Z,29.34
2022-08-16T17:51:30.982Z,29.17
2022-08-16T17:53:59.281Z,28.85
2022-08-16T17:56:27.565Z,28.66
2022-08-16T17:58:57.223Z,28.33
2022-08-16T18:01:28.886Z,27.92
2022-08-16T18:04:09.082Z,27.83
2022-08-16T18:06:38.635Z,27.49
2022-08-16T18:09:07.659Z,27.20
2022-08-16T18:11:41.031Z,26.97
2022-08-16T18:14:11.809Z,26.97
2022-08-16T18:16:40.861Z,26.61
2022-08-16T18:19:09.171Z,26.66
2022-08-16T18:21:54.812Z,26.67
2022-08-16T18:24:24.702Z,26.49
2022-08-16T18:26:52.993Z,26.10
2022-08-16T18:29:22.717Z,25.85
2022-08-16T18:31:51.198Z,25.79
2022-08-16T18:34:20.684Z,25.61
2022-08-16T18:36:48.667Z,25.56
2022-08-16T18:39:16.498Z,25.46
2022-08-16T18:41:47.162Z,25.29
2022-08-16T18:44:26.695Z,25.12
2022-08-16T18:46:58.048Z,25.11
2022-08-16T18:49:26.369Z,24.91
2022-08-16T18:51:57.995Z,24.74
2022-08-16T18:54:28.223Z,24.62
2022-08-16T18:56:58.254Z,24.42
2022-08-16T18:59:29.124Z,24.41
2022-08-16T19:02:05.262Z,24.26
2022-08-16T19:04:54.913Z,24.15
2022-08-16T19:07:31.259Z,24.11
2022-08-16T19:10:01.574Z,23.98
2022-08-16T19:12:38.322Z,23.86
2022-08-16T19:15:15.595Z,23.87
2022-08-16T19:17:46.465Z,23.72
2022-08-16T19:20:16.803Z,23.75
2022-08-16T19:23:04.584Z,23.71
2022-08-16T19:25:46.198Z,23.71
2022-08-16T19:28:46.651Z,23.37
2022-08-16T19:31:06.996Z,23.03
2022-08-16T19:33:37.105Z,22.99
2022-08-16T19:36:05.799Z,23.00
2022-08-16T19:38:34.098Z,22.98
2022-08-16T19:41:02.305Z,22.85
2022-08-16T19:43:30.151Z,22.73
2022-08-16T19:45:58.144Z,22.78
2022-08-16T19:48:26.023Z,22.75
2022-08-16T19:50:55.306Z,22.82
2022-08-16T19:53:23.776Z,22.86
2022-08-16T19:55:51.967Z,22.97
2022-08-16T19:58:20.118Z,22.77
2022-08-16T20:00:54.044Z,22.97
2022-08-16T20:03:25.325Z,22.96
2022-08-16T20:05:55.484Z,22.98
2022-08-16T20:08:23.815Z,22.90
2022-08-16T20:10:52.090Z,22.84
2022-08-16T20:13:23.060Z,22.67
2022-08-16T20:15:51.902Z,22.50
2022-08-16T20:18:24.853Z,22.33
2022-08-16T20:20:55.853Z,22.22
2022-08-16T20:23:25.219Z,22.12
2022-08-16T20:25:55.757Z,22.16
2022-08-16T20:28:51.801Z,22.18
2022-08-16T20:31:13.482Z,22.04
2022-08-16T20:33:41.682Z,22.02
2022-08-16T20:36:16.625Z,22.06
2022-08-16T20:38:47.718Z,21.98
2022-08-16T20:41:16.297Z,21.90
2022-08-16T20:43:45.565Z,21.85
2022-08-16T20:46:14.825Z,21.92
2022-08-16T20:48:43.330Z,21.83
2022-08-16T20:51:13.026Z,21.95
2022-08-16T20:53:42.522Z,21.95
2022-08-16T20:56:12.030Z,21.99
2022-08-16T20:58:40.532Z,21.88
2022-08-16T21:01:09.306Z,21.85
2022-08-16T21:03:37.884Z,21.78
2022-08-16T21:06:06.538Z,21.66
2022-08-16T21:08:52.055Z,21.55
2022-08-16T21:11:23.652Z,21.54
2022-08-16T21:14:00.295Z,21.60
2022-08-16T21:16:29.206Z,21.66
2022-08-16T21:18:57.978Z,21.65
2022-08-16T21:21:33.466Z,21.71
2022-08-16T21:24:04.034Z,21.77
2022-08-16T21:26:32.055Z,21.72
2022-08-16T21:29:00.614Z,21.68
2022-08-16T21:31:29.593Z,21.60
2022-08-16T21:33:58.740Z,21.53
2022-08-16T21:36:34.675Z,21.49
2022-08-16T21:39:07.199Z,21.44
2022-08-16T21:41:36.235Z,21.48
2022-08-16T21:44:05.090Z,21.41
2022-08-16T21:46:34.771Z,21.47
2022-08-16T21:49:04.792Z,21.41
2022-08-16T21:51:33.215Z,21.38
2022-08-16T21:54:01.418Z,21.30
2022-08-16T21:56:31.266Z,21.29
2022-08-16T21:58:59.556Z,21.26
2022-08-16T22:01:27.860Z,21.02
2022-08-16T22:04:01.634Z,21.00
2022-08-16T22:06:44.886Z,20.94
2022-08-16T22:09:16.422Z,20.90
2022-08-16T22:11:46.415Z,20.83
2022-08-16T22:14:14.591Z,20.86
2022-08-16T22:16:44.118Z,20.79
2022-08-16T22:19:13.718Z,20.62
2022-08-16T22:21:42.209Z,20.65
2022-08-16T22:24:10.903Z,20.59
2022-08-16T22:26:43.034Z,20.56
2022-08-16T22:29:15.091Z,20.54
2022-08-16T22:31:45.159Z,20.43
2022-08-16T22:34:15.160Z,20.36
2022-08-16T22:36:43.694Z,20.26
2022-08-16T22:39:15.302Z,20.45
2022-08-16T22:41:45.827Z,20.27
2022-08-16T22:44:15.628Z,20.28
2022-08-16T22:46:44.621Z,20.24
2022-08-16T22:49:13.575Z,20.34
2022-08-16T22:51:41.994Z,20.37
2022-08-16T22:54:45.951Z,20.51
2022-08-16T22:56:58.729Z,20.50
2022-08-16T22:59:30.362Z,20.48
2022-08-16T23:01:59.163Z,20.37
2022-08-16T23:04:27.264Z,20.46
2022-08-16T23:06:55.504Z,20.32
2022-08-16T23:09:23.661Z,20.37
2022-08-16T23:11:51.996Z,20.39
2022-08-16T23:14:20.294Z,20.42
2022-08-16T23:16:49.773Z,20.42
2022-08-16T23:19:18.311Z,20.48
2022-08-16T23:21:49.508Z,20.43
2022-08-16T23:24:20.669Z,20.26
2022-08-16T23:26:49.728Z,20.16
2022-08-16T23:29:24.855Z,20.14
2022-08-16T23:32:00.239Z,20.30
2022-08-16T23:34:30.100Z,20.22
2022-08-16T23:36:58.204Z,20.17
2022-08-16T23:39:27.125Z,20.15
2022-08-16T23:41:55.736Z,20.34
2022-08-16T23:44:58.533Z,20.37
2022-08-16T23:47:13.651Z,20.45
2022-08-16T23:49:57.260Z,20.43
2022-08-16T23:52:53.765Z,20.48
2022-08-16T23:55:18.042Z,20.55
2022-08-16T23:57:47.263Z,20.64
